createdAt,value
2022-10-05T00:02:27.331Z,1010.96
2022-10-05T00:05:00.432Z,1010.98
2022-10-05T00:07:33.365Z,1011.01
2022-10-05T00:10:06.386Z,1011.04
2022-10-05T00:12:39.456Z,1011.06
2022-10-05T00:15:12.344Z,1011.08
2022-10-05T00:17:45.304Z,1011.10
2022-10-05T00:20:18.551Z,1011.12
2022-10-05T00:22:52.354Z,1011.13
2022-10-05T00:25:25.326Z,1011.14
2022-10-05T00:27:58.442Z,1011.15
2022-10-05T00:30:31.397Z,1011.17
2022-10-05T00:33:04.460Z,1011.17
2022-10-05T00:35:38.435Z,1011.17
2022-10-05T00:38:14.545Z,1011.14
2022-10-05T00:40:48.408Z,1011.13
2022-10-05T00:43:21.375Z,1011.08
2022-10-05T00:45:54.488Z,1011.03
2022-10-05T00:48:27.436Z,1011.00
2022-10-05T00:51:00.382Z,1010.94
2022-10-05T00:53:33.444Z,1010.88
2022-10-05T00:56:06.389Z,1010.82
2022-10-05T00:58:39.444Z,1010.76
2022-10-05T01:01:12.569Z,1010.72
2022-10-05T01:04:01.910Z,1010.69
2022-10-05T01:06:35.218Z,1010.67
2022-10-05T01:09:08.541Z,1010.65
2022-10-05T01:11:42.415Z,1010.64
2022-10-05T01:14:15.454Z,1010.63
2022-10-05T01:16:49.080Z,1010.63
2022-10-05T01:19:21.510Z,1010.61
2022-10-05T01:21:54.452Z,1010.58
2022-10-05T01:24:27.430Z,1010.55
2022-10-05T01:27:00.496Z,1010.54
2022-10-05T01:29:33.437Z,1010.53
2022-10-05T01:32:06.454Z,1010.53
2022-10-05T01:34:39.395Z,1010.53
2022-10-05T01:37:12.445Z,1010.53
2022-10-05T01:39:45.430Z,1010.55
2022-10-05T01:42:18.476Z,1010.56
2022-10-05T01:44:51.455Z,1010.56
2022-10-05T01:50:14.449Z,1010.60
2022-10-05T01:52:47.552Z,1010.65
2022-10-05T01:55:20.534Z,1010.70
2022-10-05T01:57:53.489Z,1010.74
2022-10-05T02:00:26.571Z,1010.79
2022-10-05T02:02:59.505Z,1010.80
2022-10-05T02:05:32.584Z,1010.81
2022-10-05T02:08:05.470Z,1010.80
2022-10-05T02:10:38.595Z,1010.80
2022-10-05T02:13:11.533Z,1010.79
2022-10-05T02:15:44.566Z,1010.79
2022-10-05T02:18:17.512Z,1010.74
2022-10-05T02:20:50.585Z,1010.69
2022-10-05T02:23:23.493Z,1010.63
2022-10-05T02:25:56.507Z,1010.57
2022-10-05T02:28:29.648Z,1010.51
2022-10-05T02:31:02.689Z,1010.44
2022-10-05T02:33:35.612Z,1010.36
2022-10-05T02:36:08.590Z,1010.29
2022-10-05T02:38:41.519Z,1010.22
2022-10-05T02:41:14.497Z,1010.18
2022-10-05T02:43:47.537Z,1010.13
2022-10-05T02:46:20.728Z,1010.10
2022-10-05T02:48:53.549Z,1010.09
2022-10-05T02:51:26.623Z,1010.09
2022-10-05T02:53:59.539Z,1010.11
2022-10-05T02:56:32.641Z,1010.13
2022-10-05T02:59:05.602Z,1010.14
2022-10-05T03:01:38.756Z,1010.14
2022-10-05T03:04:11.438Z,1010.14
2022-10-05T03:06:44.860Z,1010.12
2022-10-05T03:09:17.651Z,1010.09
2022-10-05T03:11:50.569Z,1010.04
2022-10-05T03:14:23.674Z,1009.99
2022-10-05T03:16:56.563Z,1009.94
2022-10-05T03:19:29.636Z,1009.91
2022-10-05T03:22:02.613Z,1009.90
2022-10-05T03:24:49.568Z,1009.89
2022-10-05T03:27:22.584Z,1009.89
2022-10-05T03:29:55.648Z,1009.91
2022-10-05T03:32:28.695Z,1009.92
2022-10-05T03:35:01.616Z,1009.93
2022-10-05T03:37:34.670Z,1009.95
2022-10-05T03:40:10.562Z,1009.98
2022-10-05T03:42:43.700Z,1009.98
2022-10-05T03:45:16.680Z,1010.02
2022-10-05T03:47:49.737Z,1010.04
2022-10-05T03:50:22.667Z,1010.08
2022-10-05T03:52:55.412Z,1010.12
2022-10-05T03:55:28.498Z,1010.14
2022-10-05T03:58:15.237Z,1010.15
2022-10-05T04:00:48.505Z,1010.15
2022-10-05T04:03:27.432Z,1010.17
2022-10-05T04:06:00.481Z,1010.18
2022-10-05T04:08:33.472Z,1010.19
2022-10-05T04:11:06.725Z,1010.21
2022-10-05T04:13:39.681Z,1010.21
2022-10-05T04:16:12.774Z,1010.21
2022-10-05T04:18:45.441Z,1010.22
2022-10-05T04:21:22.803Z,1010.22
2022-10-05T04:23:52.631Z,1010.22
2022-10-05T04:26:25.768Z,1010.22
2022-10-05T04:28:58.721Z,1010.23
2022-10-05T04:31:31.613Z,1010.22
2022-10-05T04:34:04.787Z,1010.21
2022-10-05T04:36:37.701Z,1010.19
2022-10-05T04:39:10.688Z,1010.19
2022-10-05T04:41:43.710Z,1010.19
2022-10-05T04:44:16.693Z,1010.20
2022-10-05T04:46:50.101Z,1010.20
2022-10-05T04:49:22.797Z,1010.20
2022-10-05T04:51:55.808Z,1010.21
2022-10-05T04:54:28.580Z,1010.22
2022-10-05T04:57:01.505Z,1010.24
2022-10-05T04:59:48.777Z,1010.27
2022-10-05T05:02:21.822Z,1010.31
2022-10-05T05:04:54.818Z,1010.34
2022-10-05T05:07:27.735Z,1010.38
2022-10-05T05:10:00.822Z,1010.41
2022-10-05T05:12:33.746Z,1010.42
2022-10-05T05:15:06.823Z,1010.45
2022-10-05T05:17:39.842Z,1010.47
2022-10-05T05:20:12.763Z,1010.51
2022-10-05T05:22:45.879Z,1010.53
2022-10-05T05:25:18.787Z,1010.54
2022-10-05T05:27:51.752Z,1010.57
2022-10-05T05:30:25.013Z,1010.59
2022-10-05T05:33:12.882Z,1010.60
2022-10-05T05:35:45.845Z,1010.63
2022-10-05T05:38:18.876Z,1010.67
2022-10-05T05:40:51.834Z,1010.72
2022-10-05T05:43:24.750Z,1010.75
2022-10-05T05:45:57.890Z,1010.78
2022-10-05T05:48:30.943Z,1010.81
2022-10-05T05:51:04.882Z,1010.84
2022-10-05T05:53:37.839Z,1010.85
2022-10-05T05:56:11.009Z,1010.87
2022-10-05T05:58:44.850Z,1010.89
2022-10-05T06:01:32.246Z,1010.88
2022-10-05T06:03:50.676Z,1010.89
2022-10-05T06:06:23.946Z,1010.90
2022-10-05T06:08:56.805Z,1010.92
2022-10-05T06:11:29.877Z,1010.91
2022-10-05T06:14:02.811Z,1010.91
2022-10-05T06:16:35.891Z,1010.91
2022-10-05T06:19:08.893Z,1010.91
2022-10-05T06:21:41.983Z,1010.92
2022-10-05T06:24:14.893Z,1010.92
2022-10-05T06:26:48.486Z,1010.92
2022-10-05T06:29:20.813Z,1010.92
2022-10-05T06:31:58.572Z,1010.93
2022-10-05T06:34:26.839Z,1010.92
2022-10-05T06:36:59.954Z,1010.89
2022-10-05T06:39:32.961Z,1010.89
2022-10-05T06:42:05.841Z,1010.89
2022-10-05T06:44:38.983Z,1010.91
2022-10-05T06:47:11.969Z,1010.91
2022-10-05T06:49:44.987Z,1010.91
2022-10-05T06:52:18.030Z,1010.91
2022-10-05T06:54:50.874Z,1010.91
2022-10-05T06:57:23.968Z,1010.93
2022-10-05T06:59:56.869Z,1010.94
2022-10-05T07:02:30.043Z,1010.94
2022-10-05T07:05:02.928Z,1010.94
2022-10-05T07:07:36.078Z,1010.95
2022-10-05T07:10:09.937Z,1010.96
2022-10-05T07:12:43.034Z,1010.94
2022-10-05T07:15:16.027Z,1010.91
2022-10-05T07:17:49.011Z,1010.91
2022-10-05T07:20:21.999Z,1010.90
2022-10-05T07:22:54.951Z,1010.89
2022-10-05T07:25:28.012Z,1010.89
2022-10-05T07:28:01.065Z,1010.90
2022-10-05T07:30:33.839Z,1010.91
2022-10-05T07:33:06.936Z,1010.94
2022-10-05T07:35:39.912Z,1010.97
2022-10-05T07:38:13.098Z,1010.97
2022-10-05T07:40:48.925Z,1011.00
2022-10-05T07:43:22.059Z,1011.02
2022-10-05T07:45:54.972Z,1011.05
2022-10-05T07:48:27.964Z,1011.06
2022-10-05T07:51:01.115Z,1011.07
2022-10-05T07:53:35.061Z,1011.07
2022-10-05T07:56:08.062Z,1011.08
2022-10-05T07:58:41.072Z,1011.08
2022-10-05T08:01:14.016Z,1011.08
2022-10-05T08:03:46.989Z,1011.07
2022-10-05T08:06:20.060Z,1011.07
2022-10-05T08:08:53.017Z,1011.06
2022-10-05T08:11:26.098Z,1011.03
2022-10-05T08:14:04.708Z,1011.02
2022-10-05T08:16:38.116Z,1011.00
2022-10-05T08:19:11.003Z,1011.03
2022-10-05T08:21:44.127Z,1011.02
2022-10-05T08:24:17.079Z,1011.01
2022-10-05T08:26:50.096Z,1011.00
2022-10-05T08:29:23.008Z,1010.99
2022-10-05T08:31:55.831Z,1010.96
2022-10-05T08:34:28.999Z,1010.95
2022-10-05T08:37:16.031Z,1010.93
2022-10-05T08:39:49.143Z,1010.90
2022-10-05T08:42:22.135Z,1010.88
2022-10-05T08:44:55.032Z,1010.86
2022-10-05T08:47:28.142Z,1010.85
2022-10-05T08:50:01.113Z,1010.84
2022-10-05T08:52:34.135Z,1010.83
2022-10-05T08:55:07.221Z,1010.82
2022-10-05T08:57:40.134Z,1010.83
2022-10-05T09:00:13.057Z,1010.83
2022-10-05T09:02:46.142Z,1010.81
2022-10-05T09:05:19.048Z,1010.81
2022-10-05T09:07:52.161Z,1010.80
2022-10-05T09:10:25.066Z,1010.80
2022-10-05T09:12:58.202Z,1010.79
2022-10-05T09:15:34.204Z,1010.78
2022-10-05T09:18:07.103Z,1010.77
2022-10-05T09:20:45.896Z,1010.76
2022-10-05T09:23:19.082Z,1010.75
2022-10-05T09:25:52.006Z,1010.74
2022-10-05T09:28:24.957Z,1010.75
2022-10-05T09:30:57.969Z,1010.74
2022-10-05T09:33:31.209Z,1010.71
2022-10-05T09:36:04.052Z,1010.69
2022-10-05T09:38:37.224Z,1010.68
2022-10-05T09:41:10.147Z,1010.65
2022-10-05T09:43:43.243Z,1010.64
2022-10-05T09:46:16.299Z,1010.63
2022-10-05T09:48:49.181Z,1010.61
2022-10-05T09:51:22.220Z,1010.59
2022-10-05T09:53:55.114Z,1010.56
2022-10-05T09:59:01.158Z,1010.52
2022-10-05T10:01:34.677Z,1010.50
2022-10-05T10:04:07.212Z,1010.49
2022-10-05T10:06:40.202Z,1010.49
2022-10-05T10:09:13.274Z,1010.47
2022-10-05T10:11:46.591Z,1010.46
2022-10-05T10:14:19.143Z,1010.45
2022-10-05T10:16:52.259Z,1010.43
2022-10-05T10:19:25.209Z,1010.41
2022-10-05T10:21:58.281Z,1010.40
2022-10-05T10:24:31.241Z,1010.37
2022-10-05T10:27:04.322Z,1010.34
2022-10-05T10:29:37.275Z,1010.33
2022-10-05T10:32:10.233Z,1010.32
2022-10-05T10:34:43.258Z,1010.30
2022-10-05T10:37:16.317Z,1010.28
2022-10-05T10:39:49.192Z,1010.28
2022-10-05T10:42:26.081Z,1010.27
2022-10-05T10:44:55.102Z,1010.24
2022-10-05T10:47:28.305Z,1010.23
2022-10-05T10:50:01.296Z,1010.22
2022-10-05T10:52:34.326Z,1010.19
2022-10-05T10:55:07.197Z,1010.15
2022-10-05T10:57:40.340Z,1010.15
2022-10-05T11:00:13.278Z,1010.14
2022-10-05T11:02:46.263Z,1010.11
2022-10-05T11:05:19.316Z,1010.09
2022-10-05T11:07:52.292Z,1010.07
2022-10-05T11:10:25.304Z,1010.05
2022-10-05T11:12:58.321Z,1010.02
2022-10-05T11:15:31.314Z,1010.01
2022-10-05T11:18:04.384Z,1009.98
2022-10-05T11:20:51.270Z,1009.96
2022-10-05T11:23:24.393Z,1009.93
2022-10-05T11:25:57.307Z,1009.91
2022-10-05T11:28:30.508Z,1009.89
2022-10-05T11:31:03.232Z,1009.88
2022-10-05T11:33:36.398Z,1009.85
2022-10-05T11:36:09.283Z,1009.83
2022-10-05T11:38:42.395Z,1009.81
2022-10-05T11:41:15.354Z,1009.79
2022-10-05T11:43:48.044Z,1009.79
2022-10-05T11:46:21.419Z,1009.76
2022-10-05T11:48:54.393Z,1009.74
2022-10-05T11:51:28.926Z,1009.70
2022-10-05T11:54:00.285Z,1009.65
2022-10-05T11:56:33.426Z,1009.61
2022-10-05T11:59:06.166Z,1009.57
2022-10-05T12:01:39.339Z,1009.53
2022-10-05T12:04:12.440Z,1009.49
2022-10-05T12:06:45.467Z,1009.44
2022-10-05T12:09:18.045Z,1009.40
2022-10-05T12:11:55.543Z,1009.36
2022-10-05T12:14:24.224Z,1009.33
2022-10-05T12:16:57.146Z,1009.28
2022-10-05T12:19:30.154Z,1009.23
2022-10-05T12:22:03.196Z,1009.20
2022-10-05T12:24:50.099Z,1009.16
2022-10-05T12:27:23.161Z,1009.15
2022-10-05T12:29:56.133Z,1009.15
2022-10-05T12:32:29.228Z,1009.13
2022-10-05T12:35:02.305Z,1009.12
2022-10-05T12:37:35.494Z,1009.09
2022-10-05T12:40:08.409Z,1009.08
2022-10-05T12:42:42.068Z,1009.07
2022-10-05T12:45:14.150Z,1009.06
2022-10-05T12:47:51.505Z,1009.06
2022-10-05T12:50:20.489Z,1009.04
2022-10-05T12:52:53.097Z,1009.03
2022-10-05T12:55:26.331Z,1009.00
2022-10-05T12:58:05.049Z,1008.98
2022-10-05T13:00:38.183Z,1008.95
2022-10-05T13:03:11.335Z,1008.94
2022-10-05T13:05:44.255Z,1008.91
2022-10-05T13:08:17.137Z,1008.88
2022-10-05T13:10:50.232Z,1008.85
2022-10-05T13:13:23.218Z,1008.82
2022-10-05T13:15:56.488Z,1008.79
2022-10-05T13:18:29.568Z,1008.78
2022-10-05T13:21:02.549Z,1008.76
2022-10-05T13:23:35.467Z,1008.73
2022-10-05T13:26:08.879Z,1008.70
2022-10-05T13:28:44.397Z,1008.69
2022-10-05T13:31:17.538Z,1008.68
2022-10-05T13:33:50.598Z,1008.68
2022-10-05T13:36:23.585Z,1008.66
2022-10-05T13:38:56.424Z,1008.63
2022-10-05T13:41:29.562Z,1008.61
2022-10-05T13:44:02.476Z,1008.58
2022-10-05T13:46:35.368Z,1008.55
2022-10-05T13:49:08.590Z,1008.52
2022-10-05T13:51:41.526Z,1008.49
2022-10-05T13:54:14.466Z,1008.48
2022-10-05T13:56:47.498Z,1008.44
2022-10-05T13:59:20.460Z,1008.43
2022-10-05T14:01:53.666Z,1008.41
2022-10-05T14:04:26.512Z,1008.38
2022-10-05T14:06:59.390Z,1008.34
2022-10-05T14:09:32.519Z,1008.32
2022-10-05T14:12:05.590Z,1008.31
2022-10-05T14:14:38.610Z,1008.28
2022-10-05T14:17:11.280Z,1008.27
2022-10-05T14:19:44.519Z,1008.25
2022-10-05T14:22:17.618Z,1008.22
2022-10-05T14:24:53.345Z,1008.21
2022-10-05T14:27:26.299Z,1008.17
2022-10-05T14:29:59.653Z,1008.15
2022-10-05T14:32:32.609Z,1008.13
2022-10-05T14:35:05.540Z,1008.11
2022-10-05T14:37:38.547Z,1008.10
2022-10-05T14:40:11.254Z,1008.08
2022-10-05T14:42:47.304Z,1008.05
2022-10-05T14:45:17.565Z,1008.02
2022-10-05T14:47:50.333Z,1008.00
2022-10-05T14:50:23.573Z,1007.99
2022-10-05T14:52:56.337Z,1007.96
2022-10-05T14:55:29.638Z,1007.94
2022-10-05T14:58:02.569Z,1007.92
2022-10-05T15:00:35.302Z,1007.92
2022-10-05T15:03:08.460Z,1007.91
2022-10-05T15:05:41.335Z,1007.92
2022-10-05T15:08:14.293Z,1007.93
2022-10-05T15:10:47.640Z,1007.92
2022-10-05T15:13:20.602Z,1007.92
2022-10-05T15:15:53.690Z,1007.92
2022-10-05T15:18:31.699Z,1007.93
2022-10-05T15:20:59.622Z,1007.92
2022-10-05T15:23:32.418Z,1007.91
2022-10-05T15:26:05.607Z,1007.90
2022-10-05T15:28:38.465Z,1007.88
2022-10-05T15:31:11.429Z,1007.85
2022-10-05T15:33:44.618Z,1007.83
2022-10-05T15:36:17.760Z,1007.81
2022-10-05T15:38:50.334Z,1007.79
2022-10-05T15:41:23.639Z,1007.76
2022-10-05T15:43:56.672Z,1007.73
2022-10-05T15:46:29.727Z,1007.70
2022-10-05T15:49:02.686Z,1007.69
2022-10-05T15:51:35.354Z,1007.66
2022-10-05T15:54:08.432Z,1007.65
2022-10-05T15:56:41.496Z,1007.63
2022-10-05T15:59:17.744Z,1007.60
2022-10-05T16:01:47.446Z,1007.59
2022-10-05T16:04:20.695Z,1007.58
2022-10-05T16:06:53.784Z,1007.58
2022-10-05T16:09:26.686Z,1007.59
2022-10-05T16:11:59.391Z,1007.58
2022-10-05T16:14:32.410Z,1007.58
2022-10-05T16:17:05.754Z,1007.59
2022-10-05T16:19:38.677Z,1007.60
2022-10-05T16:22:11.623Z,1007.59
2022-10-05T16:24:44.717Z,1007.61
2022-10-05T16:27:17.719Z,1007.64
2022-10-05T16:29:50.650Z,1007.66
2022-10-05T16:32:23.596Z,1007.69
2022-10-05T16:34:56.430Z,1007.71
2022-10-05T16:37:29.723Z,1007.74
2022-10-05T16:40:02.432Z,1007.77
2022-10-05T16:42:35.930Z,1007.79
2022-10-05T16:45:09.662Z,1007.81
2022-10-05T16:47:42.743Z,1007.81
2022-10-05T16:50:15.813Z,1007.82
2022-10-05T16:52:48.803Z,1007.83
2022-10-05T16:55:21.721Z,1007.84
2022-10-05T16:57:54.446Z,1007.85
2022-10-05T17:00:27.776Z,1007.87
2022-10-05T17:03:00.809Z,1007.90
2022-10-05T17:05:33.878Z,1007.93
2022-10-05T17:08:06.482Z,1007.96
2022-10-05T17:10:39.470Z,1008.00
2022-10-05T17:13:12.480Z,1008.04
2022-10-05T17:15:45.911Z,1008.08
2022-10-05T17:18:18.499Z,1008.13
2022-10-05T17:20:51.835Z,1008.17
2022-10-05T17:23:24.783Z,1008.23
2022-10-05T17:25:57.484Z,1008.27
2022-10-05T17:28:30.768Z,1008.31
2022-10-05T17:31:03.683Z,1008.35
2022-10-05T17:33:36.569Z,1008.40
2022-10-05T17:36:09.683Z,1008.43
2022-10-05T17:38:42.573Z,1008.46
2022-10-05T17:41:15.659Z,1008.50
2022-10-05T17:43:48.941Z,1008.54
2022-10-05T17:46:21.874Z,1008.58
2022-10-05T17:48:54.590Z,1008.63
2022-10-05T17:51:27.714Z,1008.69
2022-10-05T17:54:00.828Z,1008.76
2022-10-05T17:56:33.926Z,1008.81
2022-10-05T17:59:06.532Z,1008.85
2022-10-05T18:01:39.808Z,1008.88
2022-10-05T18:04:12.871Z,1008.92
2022-10-05T18:06:45.867Z,1008.95
2022-10-05T18:09:18.815Z,1008.99
2022-10-05T18:11:51.722Z,1009.02
2022-10-05T18:14:24.969Z,1009.07
2022-10-05T18:16:57.722Z,1009.10
2022-10-05T18:19:30.668Z,1009.14
2022-10-05T18:22:03.743Z,1009.16
2022-10-05T18:24:36.743Z,1009.20
2022-10-05T18:27:09.585Z,1009.25
2022-10-05T18:29:42.625Z,1009.29
2022-10-05T18:32:15.697Z,1009.34
2022-10-05T18:34:48.775Z,1009.37
2022-10-05T18:37:21.621Z,1009.41
2022-10-05T18:39:54.765Z,1009.46
2022-10-05T18:42:27.625Z,1009.51
2022-10-05T18:45:00.739Z,1009.55
2022-10-05T18:47:33.637Z,1009.60
2022-10-05T18:50:06.693Z,1009.63
2022-10-05T18:52:39.761Z,1009.68
2022-10-05T18:55:12.777Z,1009.71
2022-10-05T18:57:45.688Z,1009.74
2022-10-05T19:00:18.879Z,1009.75
2022-10-05T19:02:52.042Z,1009.77
2022-10-05T19:05:46.267Z,1009.80
2022-10-05T19:07:57.815Z,1009.83
2022-10-05T19:10:30.635Z,1009.84
2022-10-05T19:13:03.731Z,1009.86
2022-10-05T19:15:36.773Z,1009.89
2022-10-05T19:18:09.647Z,1009.93
2022-10-05T19:20:42.747Z,1009.96
2022-10-05T19:23:16.002Z,1009.99
2022-10-05T19:25:48.742Z,1010.04
2022-10-05T19:28:22.082Z,1010.08
2022-10-05T19:30:54.986Z,1010.13
2022-10-05T19:33:28.074Z,1010.17
2022-10-05T19:36:00.668Z,1010.20
2022-10-05T19:38:34.106Z,1010.23
2022-10-05T19:41:06.743Z,1010.24
2022-10-05T19:43:40.070Z,1010.26
2022-10-05T19:46:16.334Z,1010.31
2022-10-05T19:48:45.990Z,1010.33
2022-10-05T19:51:18.994Z,1010.34
2022-10-05T19:53:51.924Z,1010.37
2022-10-05T19:56:25.123Z,1010.42
2022-10-05T19:58:58.243Z,1010.47
2022-10-05T20:01:31.990Z,1010.51
2022-10-05T20:04:04.786Z,1010.55
2022-10-05T20:06:38.088Z,1010.60
2022-10-05T20:09:11.068Z,1010.65
2022-10-05T20:11:43.787Z,1010.70
2022-10-05T20:14:16.941Z,1010.74
2022-10-05T20:16:49.736Z,1010.78
2022-10-05T20:19:22.756Z,1010.81
2022-10-05T20:21:56.066Z,1010.85
2022-10-05T20:24:28.946Z,1010.88
2022-10-05T20:27:01.896Z,1010.91
2022-10-05T20:29:35.092Z,1010.96
2022-10-05T20:32:07.806Z,1011.01
2022-10-05T20:34:41.176Z,1011.04
2022-10-05T20:37:14.071Z,1011.06
2022-10-05T20:39:47.188Z,1011.08
2022-10-05T20:42:34.131Z,1011.12
2022-10-05T20:45:06.977Z,1011.14
2022-10-05T20:47:39.925Z,1011.18
2022-10-05T20:50:12.789Z,1011.22
2022-10-05T20:52:45.804Z,1011.26
2022-10-05T20:55:18.825Z,1011.27
2022-10-05T20:57:51.816Z,1011.30
2022-10-05T21:00:24.791Z,1011.34
2022-10-05T21:02:57.946Z,1011.38
2022-10-05T21:05:30.853Z,1011.42
2022-10-05T21:08:04.128Z,1011.48
2022-10-05T21:10:36.825Z,1011.53
2022-10-05T21:13:10.091Z,1011.58
2022-10-05T21:15:43.204Z,1011.62
2022-10-05T21:18:16.026Z,1011.66
2022-10-05T21:20:48.991Z,1011.71
2022-10-05T21:23:22.171Z,1011.74
2022-10-05T21:25:55.201Z,1011.76
2022-10-05T21:28:31.593Z,1011.78
2022-10-05T21:31:04.280Z,1011.81
2022-10-05T21:33:37.177Z,1011.83
2022-10-05T21:36:10.118Z,1011.86
2022-10-05T21:38:43.238Z,1011.88
2022-10-05T21:41:16.235Z,1011.89
2022-10-05T21:43:49.158Z,1011.91
2022-10-05T21:46:22.251Z,1011.92
2022-10-05T21:48:55.162Z,1011.95
2022-10-05T21:51:28.268Z,1011.97
2022-10-05T21:54:01.165Z,1011.99
2022-10-05T21:56:34.099Z,1012.00
2022-10-05T21:59:07.157Z,1012.04
2022-10-05T22:01:40.252Z,1012.06
2022-10-05T22:04:13.230Z,1012.07
2022-10-05T22:06:46.291Z,1012.09
2022-10-05T22:09:19.179Z,1012.10
2022-10-05T22:11:52.306Z,1012.15
2022-10-05T22:14:25.235Z,1012.19
2022-10-05T22:16:58.286Z,1012.23
2022-10-05T22:19:31.212Z,1012.25
2022-10-05T22:22:06.673Z,1012.27
2022-10-05T22:24:37.229Z,1012.27
2022-10-05T22:27:10.241Z,1012.29
2022-10-05T22:29:43.294Z,1012.30
2022-10-05T22:32:16.244Z,1012.30
2022-10-05T22:34:49.322Z,1012.29
2022-10-05T22:37:22.252Z,1012.31
2022-10-05T22:39:55.317Z,1012.32
2022-10-05T22:42:28.305Z,1012.31
2022-10-05T22:45:01.282Z,1012.33
2022-10-05T22:47:34.296Z,1012.33
2022-10-05T22:50:07.313Z,1012.32
2022-10-05T22:52:41.227Z,1012.33
2022-10-05T22:55:14.317Z,1012.33
2022-10-05T22:57:47.379Z,1012.34
2022-10-05T23:00:24.718Z,1012.34
2022-10-05T23:02:53.303Z,1012.36
2022-10-05T23:05:26.272Z,1012.39
2022-10-05T23:07:59.341Z,1012.40
2022-10-05T23:10:32.338Z,1012.44
2022-10-05T23:13:05.408Z,1012.47
2022-10-05T23:15:38.369Z,1012.50
2022-10-05T23:18:11.288Z,1012.54
2022-10-05T23:20:44.134Z,1012.57
2022-10-05T23:23:17.356Z,1012.60
2022-10-05T23:25:50.344Z,1012.64
2022-10-05T23:28:23.490Z,1012.66
2022-10-05T23:30:56.456Z,1012.68
2022-10-05T23:33:29.404Z,1012.70
2022-10-05T23:36:02.387Z,1012.73
2022-10-05T23:38:35.252Z,1012.76
2022-10-05T23:41:08.384Z,1012.79
2022-10-05T23:43:41.405Z,1012.81
2022-10-05T23:46:14.477Z,1012.85
2022-10-05T23:48:47.411Z,1012.87
2022-10-05T23:51:20.432Z,1012.88
2022-10-05T23:53:53.391Z,1012.90
2022-10-05T23:56:26.347Z,1012.91
2022-10-05T23:58:59.562Z,1012.91
